Map

Track Data

SID SEASON NUMBER BASIN SUBBASIN NAME ISO_TIME NATURE LAT LON WMO_WIND WMO_PRES WMO_AGENCY TRACK_TYPE DIST2LAND LANDFALL IFLAG USA_AGENCY USA_ATCF_ID USA_LAT USA_LON USA_RECORD USA_STATUS USA_WIND USA_PRES USA_SSHS USA_R34_NE USA_R34_SE USA_R34_SW USA_R34_NW USA_R50_NE USA_R50_SE USA_R50_SW USA_R50_NW USA_R64_NE USA_R64_SE USA_R64_SW USA_R64_NW USA_POCI USA_ROCI USA_RMW USA_EYE TOKYO_LAT TOKYO_LON TOKYO_GRADE TOKYO_WIND TOKYO_PRES TOKYO_R50_DIR TOKYO_R50_LONG TOKYO_R50_SHORT TOKYO_R30_DIR TOKYO_R30_LONG TOKYO_R30_SHORT TOKYO_LAND CMA_LAT CMA_LON CMA_CAT CMA_WIND CMA_PRES HKO_LAT HKO_LON HKO_CAT HKO_WIND HKO_PRES NEWDELHI_LAT NEWDELHI_LON NEWDELHI_GRADE NEWDELHI_WIND NEWDELHI_PRES NEWDELHI_CI NEWDELHI_DP NEWDELHI_POCI REUNION_LAT REUNION_LON REUNION_TYPE REUNION_WIND REUNION_PRES REUNION_TNUM REUNION_CI REUNION_RMW REUNION_R34_NE REUNION_R34_SE REUNION_R34_SW REUNION_R34_NW REUNION_R50_NE REUNION_R50_SE REUNION_R50_SW REUNION_R50_NW REUNION_R64_NE REUNION_R64_SE REUNION_R64_SW REUNION_R64_NW BOM_LAT BOM_LON BOM_TYPE BOM_WIND BOM_PRES BOM_TNUM BOM_CI BOM_RMW BOM_R34_NE BOM_R34_SE BOM_R34_SW BOM_R34_NW BOM_R50_NE BOM_R50_SE BOM_R50_SW BOM_R50_NW BOM_R64_NE BOM_R64_SE BOM_R64_SW BOM_R64_NW BOM_ROCI BOM_POCI BOM_EYE BOM_POS_METHOD BOM_PRES_METHOD NADI_LAT NADI_LON NADI_CAT NADI_WIND NADI_PRES WELLINGTON_LAT WELLINGTON_LON WELLINGTON_WIND WELLINGTON_PRES DS824_LAT DS824_LON DS824_STAGE DS824_WIND DS824_PRES TD9636_LAT TD9636_LON TD9636_STAGE TD9636_WIND TD9636_PRES TD9635_LAT TD9635_LON TD9635_WIND TD9635_PRES TD9635_ROCI NEUMANN_LAT NEUMANN_LON NEUMANN_CLASS NEUMANN_WIND NEUMANN_PRES MLC_LAT MLC_LON MLC_CLASS MLC_WIND MLC_PRES USA_GUST BOM_GUST BOM_GUST_PER REUNION_GUST REUNION_GUST_PER USA_SEAHGT USA_SEARAD_NE USA_SEARAD_SE USA_SEARAD_SW USA_SEARAD_NW STORM_SPEED STORM_DIR
1971254N16344 1971 113 NA NA NOT_NAMED 1971-09-10 12:00:00 TS 16.0000 -16.0000 20 hurdat_atl main 0 0 O_____________ hurdat_atl AL161971 16.0000 -16.0000 TD 20 -1 19 270
1971254N16344 1971 113 NA NA NOT_NAMED 1971-09-10 15:00:00 TS 16.0009 -17.0000 main 53 53 P_____________ AL161971 16.0009 -17.0000 TD 20 -1 19 270
1971254N16344 1971 113 NA NA NOT_NAMED 1971-09-10 18:00:00 TS 16.0000 -18.0000 20 hurdat_atl main 148 148 O_____________ hurdat_atl AL161971 16.0000 -18.0000 TD 20 -1 19 270
1971254N16344 1971 113 NA NA NOT_NAMED 1971-09-10 21:00:00 TS 15.9995 -19.0000 main 216 216 P_____________ AL161971 15.9995 -19.0000 TD 22 -1 19 270
1971254N16344 1971 113 NA NA NOT_NAMED 1971-09-11 00:00:00 TS 16.0000 -20.0000 25 hurdat_atl main 305 305 O_____________ hurdat_atl AL161971 16.0000 -20.0000 TD 25 -1 19 270
1971254N16344 1971 113 NA NA NOT_NAMED 1971-09-11 03:00:00 TS 15.9995 -21.0000 main 402 402 P_____________ AL161971 15.9995 -21.0000 TD 25 -1 19 270
1971254N16344 1971 113 NA NA NOT_NAMED 1971-09-11 06:00:00 TS 16.0000 -22.0000 25 hurdat_atl main 504 504 O_____________ hurdat_atl AL161971 16.0000 -22.0000 TD 25 -1 20 270
1971254N16344 1971 113 NA NA NOT_NAMED 1971-09-11 09:00:00 TS 16.0001 -23.0450 main 607 607 P_____________ AL161971 16.0001 -23.0450 TD 25 -1 19 270
1971254N16344 1971 113 NA NA NOT_NAMED 1971-09-11 12:00:00 TS 16.0000 -24.0000 25 hurdat_atl main 712 712 O_____________ hurdat_atl AL161971 16.0000 -24.0000 TD 25 -1 16 270
1971254N16344 1971 113 NA NA NOT_NAMED 1971-09-11 15:00:00 TS 15.9993 -24.7450 main 785 785 P_____________ AL161971 15.9993 -24.7450 TD 25 -1 13 270
1971254N16344 1971 113 NA NA NOT_NAMED 1971-09-11 18:00:00 TS 16.0000 -25.4000 25 hurdat_atl main 859 859 O_____________ hurdat_atl AL161971 16.0000 -25.4000 TD 25 -1 13 270
1971254N16344 1971 113 NA NA NOT_NAMED 1971-09-11 21:00:00 TS 15.9998 -26.1075 main 933 933 P_____________ AL161971 15.9998 -26.1075 TD 27 -1 13 270
1971254N16344 1971 113 NA NA NOT_NAMED 1971-09-12 00:00:00 TS 16.0000 -26.8000 30 hurdat_atl main 1008 1008 O_____________ hurdat_atl AL161971 16.0000 -26.8000 TD 30 -1 13 270
1971254N16344 1971 113 NA NA NOT_NAMED 1971-09-12 03:00:00 TS 15.9997 -27.4500 main 1071 1071 P_____________ AL161971 15.9997 -27.4500 TD 30 -1 13 270
1971254N16344 1971 113 NA NA NOT_NAMED 1971-09-12 06:00:00 TS 16.0000 -28.1000 30 hurdat_atl main 1146 1146 O_____________ hurdat_atl AL161971 16.0000 -28.1000 TD 30 -1 13 269
1971254N16344 1971 113 NA NA NOT_NAMED 1971-09-12 09:00:00 TS 15.9848 -28.7852 main 1220 1220 P_____________ AL161971 15.9848 -28.7852 TD 30 -1 13 270
1971254N16344 1971 113 NA NA NOT_NAMED 1971-09-12 12:00:00 TS 16.0000 -29.5000 30 hurdat_atl main 1295 1295 O_____________ hurdat_atl AL161971 16.0000 -29.5000 TD 30 -1 14 274
1971254N16344 1971 113 NA NA NOT_NAMED 1971-09-12 15:00:00 TS 16.0773 -30.2425 main 1370 1370 P_____________ AL161971 16.0773 -30.2425 TD 30 -1 15 278
1971254N16344 1971 113 NA NA NOT_NAMED 1971-09-12 18:00:00 TS 16.2000 -31.0000 30 hurdat_atl main 1456 1456 O_____________ hurdat_atl AL161971 16.2000 -31.0000 TD 30 -1 15 280
1971254N16344 1971 113 NA NA NOT_NAMED 1971-09-12 21:00:00 TS 16.3503 -31.8248 main 1543 1543 P_____________ AL161971 16.3503 -31.8248 TD 30 -1 15 282
1971254N16344 1971 113 NA NA NOT_NAMED 1971-09-13 00:00:00 TS 16.5000 -32.5000 30 hurdat_atl main 1619 1619 O_____________ hurdat_atl AL161971 16.5000 -32.5000 TD 30 -1 9 287
1971254N16344 1971 113 NA NA NOT_NAMED 1971-09-13 03:00:00 TS 16.5983 -32.6756 main 1641 1641 P_____________ AL161971 16.5983 -32.6756 TD 27 -1 5 293
1971254N16344 1971 113 NA NA NOT_NAMED 1971-09-13 06:00:00 TS 16.7000 -33.0000 25 hurdat_atl main 1674 1674 O_____________ hurdat_atl AL161971 16.7000 -33.0000 TD 25 -1 14 280
1971254N16344 1971 113 NA NA NOT_NAMED 1971-09-13 09:00:00 TS 16.8445 -34.1448 main 1792 1792 P_____________ AL161971 16.8445 -34.1448 TD 25 -1 24 277
1971254N16344 1971 113 NA NA NOT_NAMED 1971-09-13 12:00:00 TS 17.0000 -35.5000 25 hurdat_atl main 1942 1942 O_____________ hurdat_atl AL161971 17.0000 -35.5000 TD 25 -1 23 278
1971254N16344 1971 113 NA NA NOT_NAMED 1971-09-13 15:00:00 TS 17.1415 -36.5028 main 2049 2049 P_____________ AL161971 17.1415 -36.5028 TD 25 -1 18 279
1971254N16344 1971 113 NA NA NOT_NAMED 1971-09-13 18:00:00 TS 17.3000 -37.4000 25 hurdat_atl main 2101 2047 O_____________ hurdat_atl AL161971 17.3000 -37.4000 TD 25 -1 18 282
1971254N16344 1971 113 NA NA NOT_NAMED 1971-09-13 21:00:00 TS 17.4919 -38.3001 main 2047 2004 P_____________ AL161971 17.4919 -38.3001 TD 25 -1 18 283
1971254N16344 1971 113 NA NA NOT_NAMED 1971-09-14 00:00:00 TS 17.7000 -39.2000 25 hurdat_atl main 1997 1951 O_____________ hurdat_atl AL161971 17.7000 -39.2000 TD 25 -1 18 283
1971254N16344 1971 113 NA NA NOT_NAMED 1971-09-14 03:00:00 TS 17.8996 -40.1427 main 1951 1909 P_____________ AL161971 17.8996 -40.1427 TD 22 -1 19 282
1971254N16344 1971 113 NA NA NOT_NAMED 1971-09-14 06:00:00 TS 18.1000 -41.1000 20 hurdat_atl main 1902 1865 O_____________ hurdat_atl AL161971 18.1000 -41.1000 TD 20 -1 19 282
1971254N16344 1971 113 NA NA NOT_NAMED 1971-09-14 09:00:00 TS 18.3009 -42.0520 main 1858 1824 P_____________ AL161971 18.3009 -42.0520 TD 20 -1 18 283
1971254N16344 1971 113 NA NA NOT_NAMED 1971-09-14 12:00:00 TS 18.5000 -43.0000 20 hurdat_atl main 1818 O_____________ hurdat_atl AL161971 18.5000 -43.0000 TD 20 -1 18 282

About IBTrACS Database

This database is a web-friendly format of International Best Track Archive for Climate Stewardship (IBTrACS), a global best track data archive curated by NOAA dating back to 1842.

Updated: 2021-11-26